sensor_id;sensor_type;location;lat;lon;timestamp;temperature;humidity
66629;DHT22;53532;53.084;6.352;2022-08-20T00:01:04;18.60;99.90
66629;DHT22;53532;53.084;6.352;2022-08-20T00:03:32;18.60;99.90
66629;DHT22;53532;53.084;6.352;2022-08-20T00:06:00;18.60;99.90
66629;DHT22;53532;53.084;6.352;2022-08-20T00:08:28;18.60;99.90
66629;DHT22;53532;53.084;6.352;2022-08-20T00:10:55;18.60;99.90
66629;DHT22;53532;53.084;6.352;2022-08-20T00:13:23;18.60;99.90
66629;DHT22;53532;53.084;6.352;2022-08-20T00:15:51;18.60;99.90
66629;DHT22;53532;53.084;6.352;2022-08-20T00:18:17;18.60;99.90
66629;DHT22;53532;53.084;6.352;2022-08-20T00:20:45;18.60;99.90
66629;DHT22;53532;53.084;6.352;2022-08-20T00:23:11;18.60;99.90
66629;DHT22;53532;53.084;6.352;2022-08-20T00:25:38;18.60;99.90
66629;DHT22;53532;53.084;6.352;2022-08-20T00:28:05;18.60;99.90
66629;DHT22;53532;53.084;6.352;2022-08-20T00:30:32;18.50;99.90
66629;DHT22;53532;53.084;6.352;2022-08-20T00:33:04;18.60;99.90
66629;DHT22;53532;53.084;6.352;2022-08-20T00:35:31;18.60;99.90
66629;DHT22;53532;53.084;6.352;2022-08-20T00:37:58;18.50;99.90
66629;DHT22;53532;53.084;6.352;2022-08-20T00:40:26;18.50;99.90
66629;DHT22;53532;53.084;6.352;2022-08-20T00:42:55;18.50;99.90
66629;DHT22;53532;53.084;6.352;2022-08-20T00:45:24;18.50;99.90
66629;DHT22;53532;53.084;6.352;2022-08-20T00:47:50;18.40;99.90
66629;DHT22;53532;53.084;6.352;2022-08-20T00:50:20;18.40;99.90
66629;DHT22;53532;53.084;6.352;2022-08-20T00:52:50;18.40;99.90
66629;DHT22;53532;53.084;6.352;2022-08-20T00:55:19;18.40;99.90
66629;DHT22;53532;53.084;6.352;2022-08-20T00:57:47;18.40;99.90
66629;DHT22;53532;53.084;6.352;2022-08-20T01:00:22;18.40;99.90
66629;DHT22;53532;53.084;6.352;2022-08-20T01:02:48;18.50;99.90
66629;DHT22;53532;53.084;6.352;2022-08-20T01:05:17;18.40;99.90
66629;DHT22;53532;53.084;6.352;2022-08-20T01:07:44;18.40;99.90
66629;DHT22;53532;53.084;6.352;2022-08-20T01:10:12;18.40;99.90
66629;DHT22;53532;53.084;6.352;2022-08-20T01:12:41;18.40;99.90
66629;DHT22;53532;53.084;6.352;2022-08-20T01:15:11;18.30;99.90
66629;DHT22;53532;53.084;6.352;2022-08-20T01:17:43;18.30;99.90
66629;DHT22;53532;53.084;6.352;2022-08-20T01:20:12;18.30;99.90
66629;DHT22;53532;53.084;6.352;2022-08-20T01:22:45;18.30;99.90
66629;DHT22;53532;53.084;6.352;2022-08-20T01:25:39;18.20;99.90
66629;DHT22;53532;53.084;6.352;2022-08-20T01:28:06;18.10;99.90
66629;DHT22;53532;53.084;6.352;2022-08-20T01:30:33;18.10;99.90
66629;DHT22;53532;53.084;6.352;2022-08-20T01:32:59;18.00;99.90
66629;DHT22;53532;53.084;6.352;2022-08-20T01:35:27;18.00;99.90
66629;DHT22;53532;53.084;6.352;2022-08-20T01:37:53;18.00;99.90
66629;DHT22;53532;53.084;6.352;2022-08-20T01:40:26;17.90;99.90
66629;DHT22;53532;53.084;6.352;2022-08-20T01:42:55;17.90;99.90
66629;DHT22;53532;53.084;6.352;2022-08-20T01:45:21;17.90;99.90
66629;DHT22;53532;53.084;6.352;2022-08-20T01:47:47;17.90;99.90
66629;DHT22;53532;53.084;6.352;2022-08-20T01:50:17;17.90;99.90
66629;DHT22;53532;53.084;6.352;2022-08-20T01:52:50;17.90;99.90
66629;DHT22;53532;53.084;6.352;2022-08-20T01:55:16;17.80;99.90
66629;DHT22;53532;53.084;6.352;2022-08-20T01:57:42;17.80;99.90
66629;DHT22;53532;53.084;6.352;2022-08-20T02:00:14;17.70;99.90
66629;DHT22;53532;53.084;6.352;2022-08-20T02:02:41;17.70;99.90
66629;DHT22;53532;53.084;6.352;2022-08-20T02:05:07;17.70;99.90
66629;DHT22;53532;53.084;6.352;2022-08-20T02:07:33;17.70;99.90
66629;DHT22;53532;53.084;6.352;2022-08-20T02:10:00;17.70;99.90
66629;DHT22;53532;53.084;6.352;2022-08-20T02:12:26;17.60;99.90
66629;DHT22;53532;53.084;6.352;2022-08-20T02:14:53;17.60;99.90
66629;DHT22;53532;53.084;6.352;2022-08-20T02:17:22;17.60;99.90
66629;DHT22;53532;53.084;6.352;2022-08-20T02:19:52;17.60;99.90
66629;DHT22;53532;53.084;6.352;2022-08-20T02:22:21;17.50;99.90
66629;DHT22;53532;53.084;6.352;2022-08-20T02:24:48;17.50;99.90
66629;DHT22;53532;53.084;6.352;2022-08-20T02:27:14;17.50;99.90
66629;DHT22;53532;53.084;6.352;2022-08-20T02:29:40;17.50;99.90
66629;DHT22;53532;53.084;6.352;2022-08-20T02:32:06;17.50;99.90
66629;DHT22;53532;53.084;6.352;2022-08-20T02:34:34;17.40;99.90
66629;DHT22;53532;53.084;6.352;2022-08-20T02:37:00;17.40;99.90
66629;DHT22;53532;53.084;6.352;2022-08-20T02:39:26;17.40;99.90
66629;DHT22;53532;53.084;6.352;2022-08-20T02:41:52;17.40;99.90
66629;DHT22;53532;53.084;6.352;2022-08-20T02:44:18;17.40;99.90
66629;DHT22;53532;53.084;6.352;2022-08-20T02:46:46;17.40;99.90
66629;DHT22;53532;53.084;6.352;2022-08-20T02:49:14;17.40;99.90
66629;DHT22;53532;53.084;6.352;2022-08-20T02:51:43;17.30;99.90
66629;DHT22;53532;53.084;6.352;2022-08-20T02:54:09;17.30;99.90
66629;DHT22;53532;53.084;6.352;2022-08-20T02:56:34;17.30;99.90
66629;DHT22;53532;53.084;6.352;2022-08-20T02:59:00;17.30;99.90
66629;DHT22;53532;53.084;6.352;2022-08-20T03:01:27;17.30;99.90
66629;DHT22;53532;53.084;6.352;2022-08-20T03:03:53;17.20;99.90
66629;DHT22;53532;53.084;6.352;2022-08-20T03:06:21;17.20;99.90
66629;DHT22;53532;53.084;6.352;2022-08-20T03:08:49;17.30;99.90
66629;DHT22;53532;53.084;6.352;2022-08-20T03:11:17;17.20;99.90
66629;DHT22;53532;53.084;6.352;2022-08-20T03:13:44;17.20;99.90
66629;DHT22;53532;53.084;6.352;2022-08-20T03:16:11;17.20;99.90
66629;DHT22;53532;53.084;6.352;2022-08-20T03:18:40;17.10;99.90
66629;DHT22;53532;53.084;6.352;2022-08-20T03:21:07;17.10;99.90
66629;DHT22;53532;53.084;6.352;2022-08-20T03:23:34;17.10;99.90
66629;DHT22;53532;53.084;6.352;2022-08-20T03:26:02;17.00;99.90
66629;DHT22;53532;53.084;6.352;2022-08-20T03:28:28;17.10;99.90
66629;DHT22;53532;53.084;6.352;2022-08-20T03:30:53;17.00;99.90
66629;DHT22;53532;53.084;6.352;2022-08-20T03:33:21;17.00;99.90
66629;DHT22;53532;53.084;6.352;2022-08-20T03:35:47;17.00;99.90
66629;DHT22;53532;53.084;6.352;2022-08-20T03:38:14;17.00;99.90
66629;DHT22;53532;53.084;6.352;2022-08-20T03:40:41;17.00;99.90
66629;DHT22;53532;53.084;6.352;2022-08-20T03:43:09;17.00;99.90
66629;DHT22;53532;53.084;6.352;2022-08-20T03:45:36;16.90;99.90
66629;DHT22;53532;53.084;6.352;2022-08-20T03:48:04;16.90;99.90
66629;DHT22;53532;53.084;6.352;2022-08-20T03:50:31;16.90;99.90
66629;DHT22;53532;53.084;6.352;2022-08-20T03:52:58;16.90;99.90
66629;DHT22;53532;53.084;6.352;2022-08-20T03:55:25;16.80;99.90
66629;DHT22;53532;53.084;6.352;2022-08-20T03:57:53;16.80;99.90
66629;DHT22;53532;53.084;6.352;2022-08-20T04:00:24;16.70;99.90
66629;DHT22;53532;53.084;6.352;2022-08-20T04:02:51;16.70;99.90
66629;DHT22;53532;53.084;6.352;2022-08-20T04:05:17;16.60;99.90
66629;DHT22;53532;53.084;6.352;2022-08-20T04:07:43;16.60;99.90
66629;DHT22;53532;53.084;6.352;2022-08-20T04:10:10;16.60;99.90
66629;DHT22;53532;53.084;6.352;2022-08-20T04:12:37;16.60;99.90
66629;DHT22;53532;53.084;6.352;2022-08-20T04:15:08;16.50;99.90
66629;DHT22;53532;53.084;6.352;2022-08-20T04:17:36;16.50;99.90
66629;DHT22;53532;53.084;6.352;2022-08-20T04:20:03;16.50;99.90
66629;DHT22;53532;53.084;6.352;2022-08-20T04:22:29;16.50;99.90
66629;DHT22;53532;53.084;6.352;2022-08-20T04:24:54;16.50;99.90
66629;DHT22;53532;53.084;6.352;2022-08-20T04:27:20;16.50;99.90
66629;DHT22;53532;53.084;6.352;2022-08-20T04:29:46;16.50;99.90
66629;DHT22;53532;53.084;6.352;2022-08-20T04:32:12;16.40;99.90
66629;DHT22;53532;53.084;6.352;2022-08-20T04:34:39;16.40;99.90
66629;DHT22;53532;53.084;6.352;2022-08-20T04:37:06;16.40;99.90
66629;DHT22;53532;53.084;6.352;2022-08-20T04:39:32;16.30;99.90
66629;DHT22;53532;53.084;6.352;2022-08-20T04:41:58;16.30;99.90
66629;DHT22;53532;53.084;6.352;2022-08-20T04:44:24;16.30;99.90
66629;DHT22;53532;53.084;6.352;2022-08-20T04:46:50;16.20;99.90
66629;DHT22;53532;53.084;6.352;2022-08-20T04:49:15;16.20;99.90
66629;DHT22;53532;53.084;6.352;2022-08-20T04:51:43;16.20;99.90
66629;DHT22;53532;53.084;6.352;2022-08-20T04:54:08;16.10;99.90
66629;DHT22;53532;53.084;6.352;2022-08-20T04:56:34;16.10;99.90
66629;DHT22;53532;53.084;6.352;2022-08-20T04:59:05;16.00;99.90
66629;DHT22;53532;53.084;6.352;2022-08-20T05:01:31;16.00;99.90
66629;DHT22;53532;53.084;6.352;2022-08-20T05:03:58;15.90;99.90
66629;DHT22;53532;53.084;6.352;2022-08-20T05:06:26;15.90;99.90
66629;DHT22;53532;53.084;6.352;2022-08-20T05:08:55;15.80;99.90
66629;DHT22;53532;53.084;6.352;2022-08-20T05:11:23;15.80;99.90
66629;DHT22;53532;53.084;6.352;2022-08-20T05:13:49;15.80;99.90
66629;DHT22;53532;53.084;6.352;2022-08-20T05:16:17;15.70;99.90
66629;DHT22;53532;53.084;6.352;2022-08-20T05:18:44;15.70;99.90
66629;DHT22;53532;53.084;6.352;2022-08-20T05:21:11;15.70;99.90
66629;DHT22;53532;53.084;6.352;2022-08-20T05:23:38;15.70;99.90
66629;DHT22;53532;53.084;6.352;2022-08-20T05:26:09;15.60;99.90
66629;DHT22;53532;53.084;6.352;2022-08-20T05:28:36;15.60;99.90
66629;DHT22;53532;53.084;6.352;2022-08-20T05:31:03;15.60;99.90
66629;DHT22;53532;53.084;6.352;2022-08-20T05:33:31;15.60;99.90
66629;DHT22;53532;53.084;6.352;2022-08-20T05:35:57;15.60;99.90
66629;DHT22;53532;53.084;6.352;2022-08-20T05:38:25;15.60;99.90
66629;DHT22;53532;53.084;6.352;2022-08-20T05:40:51;15.60;99.90
66629;DHT22;53532;53.084;6.352;2022-08-20T05:43:19;15.60;99.90
66629;DHT22;53532;53.084;6.352;2022-08-20T05:45:46;15.60;99.90
66629;DHT22;53532;53.084;6.352;2022-08-20T05:48:17;15.70;99.90
66629;DHT22;53532;53.084;6.352;2022-08-20T05:50:44;15.70;99.90
66629;DHT22;53532;53.084;6.352;2022-08-20T05:53:11;15.80;99.90
66629;DHT22;53532;53.084;6.352;2022-08-20T05:55:38;15.90;99.90
66629;DHT22;53532;53.084;6.352;2022-08-20T05:58:06;16.10;99.90
66629;DHT22;53532;53.084;6.352;2022-08-20T06:00:34;16.10;99.90
66629;DHT22;53532;53.084;6.352;2022-08-20T06:03:01;16.30;99.90
66629;DHT22;53532;53.084;6.352;2022-08-20T06:05:46;16.40;99.90
66629;DHT22;53532;53.084;6.352;2022-08-20T06:08:13;16.50;99.90
66629;DHT22;53532;53.084;6.352;2022-08-20T06:10:39;16.70;99.90
66629;DHT22;53532;53.084;6.352;2022-08-20T06:13:06;16.90;99.90
66629;DHT22;53532;53.084;6.352;2022-08-20T06:15:34;17.10;99.90
66629;DHT22;53532;53.084;6.352;2022-08-20T06:18:00;17.20;99.90
66629;DHT22;53532;53.084;6.352;2022-08-20T06:20:26;17.20;99.90
66629;DHT22;53532;53.084;6.352;2022-08-20T06:22:53;17.20;99.90
66629;DHT22;53532;53.084;6.352;2022-08-20T06:25:19;17.30;99.90
66629;DHT22;53532;53.084;6.352;2022-08-20T06:27:46;17.30;99.90
66629;DHT22;53532;53.084;6.352;2022-08-20T06:30:14;17.40;99.90
66629;DHT22;53532;53.084;6.352;2022-08-20T06:32:41;17.50;99.90
66629;DHT22;53532;53.084;6.352;2022-08-20T06:35:09;17.50;99.90
66629;DHT22;53532;53.084;6.352;2022-08-20T06:37:37;17.60;99.90
66629;DHT22;53532;53.084;6.352;2022-08-20T06:40:06;17.60;99.90
66629;DHT22;53532;53.084;6.352;2022-08-20T06:42:33;17.70;99.90
66629;DHT22;53532;53.084;6.352;2022-08-20T06:44:59;17.70;99.90
66629;DHT22;53532;53.084;6.352;2022-08-20T06:47:29;17.60;99.90
66629;DHT22;53532;53.084;6.352;2022-08-20T06:49:57;17.70;99.90
66629;DHT22;53532;53.084;6.352;2022-08-20T06:52:23;17.70;99.90
66629;DHT22;53532;53.084;6.352;2022-08-20T06:54:48;17.80;99.90
66629;DHT22;53532;53.084;6.352;2022-08-20T06:57:15;17.80;99.90
66629;DHT22;53532;53.084;6.352;2022-08-20T06:59:41;17.80;99.90
66629;DHT22;53532;53.084;6.352;2022-08-20T07:02:07;17.90;99.90
66629;DHT22;53532;53.084;6.352;2022-08-20T07:04:36;18.00;99.90
66629;DHT22;53532;53.084;6.352;2022-08-20T07:07:03;18.10;99.90
66629;DHT22;53532;53.084;6.352;2022-08-20T07:09:31;18.20;99.90
66629;DHT22;53532;53.084;6.352;2022-08-20T07:11:57;18.20;99.90
66629;DHT22;53532;53.084;6.352;2022-08-20T07:14:23;18.20;99.90
66629;DHT22;53532;53.084;6.352;2022-08-20T07:16:48;18.30;99.90
66629;DHT22;53532;53.084;6.352;2022-08-20T07:19:15;18.40;99.90
66629;DHT22;53532;53.084;6.352;2022-08-20T07:21:41;18.40;99.90
66629;DHT22;53532;53.084;6.352;2022-08-20T07:24:08;18.50;99.90
66629;DHT22;53532;53.084;6.352;2022-08-20T07:26:34;18.50;99.90
66629;DHT22;53532;53.084;6.352;2022-08-20T07:29:00;18.60;99.90
66629;DHT22;53532;53.084;6.352;2022-08-20T07:31:26;18.70;99.90
66629;DHT22;53532;53.084;6.352;2022-08-20T07:34:10;18.70;99.90
66629;DHT22;53532;53.084;6.352;2022-08-20T07:36:36;18.80;99.90
66629;DHT22;53532;53.084;6.352;2022-08-20T07:39:03;18.90;99.90
66629;DHT22;53532;53.084;6.352;2022-08-20T07:41:32;19.00;99.90
66629;DHT22;53532;53.084;6.352;2022-08-20T07:43:58;19.00;99.90
66629;DHT22;53532;53.084;6.352;2022-08-20T07:46:23;19.20;99.90
66629;DHT22;53532;53.084;6.352;2022-08-20T07:48:49;19.30;99.90
66629;DHT22;53532;53.084;6.352;2022-08-20T07:51:17;19.50;99.90
66629;DHT22;53532;53.084;6.352;2022-08-20T07:53:44;19.70;99.90
66629;DHT22;53532;53.084;6.352;2022-08-20T07:56:12;19.90;99.90
66629;DHT22;53532;53.084;6.352;2022-08-20T07:58:43;20.10;99.90
66629;DHT22;53532;53.084;6.352;2022-08-20T08:01:14;20.30;99.90
66629;DHT22;53532;53.084;6.352;2022-08-20T08:03:41;20.60;99.90
66629;DHT22;53532;53.084;6.352;2022-08-20T08:06:07;20.90;99.90
66629;DHT22;53532;53.084;6.352;2022-08-20T08:08:35;21.10;99.90
66629;DHT22;53532;53.084;6.352;2022-08-20T08:11:03;21.30;99.90
66629;DHT22;53532;53.084;6.352;2022-08-20T08:13:33;21.60;99.90
66629;DHT22;53532;53.084;6.352;2022-08-20T08:16:02;21.80;99.90
66629;DHT22;53532;53.084;6.352;2022-08-20T08:18:34;22.00;99.90
66629;DHT22;53532;53.084;6.352;2022-08-20T08:21:01;22.20;99.90
66629;DHT22;53532;53.084;6.352;2022-08-20T08:23:27;22.40;99.90
66629;DHT22;53532;53.084;6.352;2022-08-20T08:25:54;22.50;99.90
66629;DHT22;53532;53.084;6.352;2022-08-20T08:28:20;22.70;99.90
66629;DHT22;53532;53.084;6.352;2022-08-20T08:30:47;22.90;99.90
66629;DHT22;53532;53.084;6.352;2022-08-20T08:33:19;23.00;99.90
66629;DHT22;53532;53.084;6.352;2022-08-20T08:35:56;23.10;96.50
66629;DHT22;53532;53.084;6.352;2022-08-20T08:38:24;23.20;98.20
66629;DHT22;53532;53.084;6.352;2022-08-20T08:40:50;23.40;99.70
66629;DHT22;53532;53.084;6.352;2022-08-20T08:43:19;23.50;99.90
66629;DHT22;53532;53.084;6.352;2022-08-20T08:45:53;23.70;98.40
66629;DHT22;53532;53.084;6.352;2022-08-20T08:48:21;23.80;99.30
66629;DHT22;53532;53.084;6.352;2022-08-20T08:50:51;24.00;95.30
66629;DHT22;53532;53.084;6.352;2022-08-20T08:53:21;24.00;90.60
66629;DHT22;53532;53.084;6.352;2022-08-20T08:55:48;24.20;85.40
66629;DHT22;53532;53.084;6.352;2022-08-20T08:58:14;24.20;81.20
66629;DHT22;53532;53.084;6.352;2022-08-20T09:00:41;24.20;84.60
66629;DHT22;53532;53.084;6.352;2022-08-20T09:03:09;24.30;84.00
66629;DHT22;53532;53.084;6.352;2022-08-20T09:05:40;24.40;77.80
66629;DHT22;53532;53.084;6.352;2022-08-20T09:08:12;24.40;72.40
66629;DHT22;53532;53.084;6.352;2022-08-20T09:10:40;24.30;72.90
66629;DHT22;53532;53.084;6.352;2022-08-20T09:13:06;24.30;70.80
66629;DHT22;53532;53.084;6.352;2022-08-20T09:15:33;24.40;73.00
66629;DHT22;53532;53.084;6.352;2022-08-20T09:17:58;24.60;68.30
66629;DHT22;53532;53.084;6.352;2022-08-20T09:20:24;24.60;67.80
66629;DHT22;53532;53.084;6.352;2022-08-20T09:22:52;24.60;65.00
66629;DHT22;53532;53.084;6.352;2022-08-20T09:25:18;24.40;65.80
66629;DHT22;53532;53.084;6.352;2022-08-20T09:27:44;24.40;66.40
66629;DHT22;53532;53.084;6.352;2022-08-20T09:30:11;24.50;66.70
66629;DHT22;53532;53.084;6.352;2022-08-20T09:32:38;24.70;69.40
66629;DHT22;53532;53.084;6.352;2022-08-20T09:35:04;24.70;69.90
66629;DHT22;53532;53.084;6.352;2022-08-20T09:37:31;24.70;71.30
66629;DHT22;53532;53.084;6.352;2022-08-20T09:39:59;24.80;68.90
66629;DHT22;53532;53.084;6.352;2022-08-20T09:42:27;24.90;66.40
66629;DHT22;53532;53.084;6.352;2022-08-20T09:44:53;25.00;64.70
66629;DHT22;53532;53.084;6.352;2022-08-20T09:47:19;25.20;63.40
66629;DHT22;53532;53.084;6.352;2022-08-20T09:49:45;25.30;62.80
66629;DHT22;53532;53.084;6.352;2022-08-20T09:52:20;25.40;62.20
66629;DHT22;53532;53.084;6.352;2022-08-20T09:54:46;25.40;64.30
66629;DHT22;53532;53.084;6.352;2022-08-20T09:57:14;25.40;62.70
66629;DHT22;53532;53.084;6.352;2022-08-20T09:59:40;25.60;62.10
66629;DHT22;53532;53.084;6.352;2022-08-20T10:02:06;25.70;59.50
66629;DHT22;53532;53.084;6.352;2022-08-20T10:04:32;25.60;57.20
66629;DHT22;53532;53.084;6.352;2022-08-20T10:06:58;25.50;57.20
66629;DHT22;53532;53.084;6.352;2022-08-20T10:09:24;25.40;58.30
66629;DHT22;53532;53.084;6.352;2022-08-20T10:11:49;25.40;59.30
66629;DHT22;53532;53.084;6.352;2022-08-20T10:14:17;25.40;58.30
66629;DHT22;53532;53.084;6.352;2022-08-20T10:16:42;25.30;58.90
66629;DHT22;53532;53.084;6.352;2022-08-20T10:19:08;25.40;58.70
66629;DHT22;53532;53.084;6.352;2022-08-20T10:21:34;25.50;58.70
66629;DHT22;53532;53.084;6.352;2022-08-20T10:24:00;25.70;59.10
66629;DHT22;53532;53.084;6.352;2022-08-20T10:26:26;25.80;58.90
66629;DHT22;53532;53.084;6.352;2022-08-20T10:28:52;25.60;59.50
66629;DHT22;53532;53.084;6.352;2022-08-20T10:31:19;25.40;59.30
66629;DHT22;53532;53.084;6.352;2022-08-20T10:33:44;25.40;59.40
66629;DHT22;53532;53.084;6.352;2022-08-20T10:36:13;25.50;57.50
66629;DHT22;53532;53.084;6.352;2022-08-20T10:38:40;25.80;55.40
66629;DHT22;53532;53.084;6.352;2022-08-20T10:41:06;25.90;56.30
66629;DHT22;53532;53.084;6.352;2022-08-20T10:43:32;26.10;57.90
66629;DHT22;53532;53.084;6.352;2022-08-20T10:45:57;26.30;57.60
66629;DHT22;53532;53.084;6.352;2022-08-20T10:48:25;26.20;56.80
66629;DHT22;53532;53.084;6.352;2022-08-20T10:50:51;26.00;58.00
66629;DHT22;53532;53.084;6.352;2022-08-20T10:53:17;25.80;58.30
66629;DHT22;53532;53.084;6.352;2022-08-20T10:55:43;25.60;58.70
66629;DHT22;53532;53.084;6.352;2022-08-20T10:58:09;25.40;59.60
66629;DHT22;53532;53.084;6.352;2022-08-20T11:00:35;25.30;59.80
66629;DHT22;53532;53.084;6.352;2022-08-20T11:03:01;25.20;58.90
66629;DHT22;53532;53.084;6.352;2022-08-20T11:05:28;25.00;59.00
66629;DHT22;53532;53.084;6.352;2022-08-20T11:07:54;24.80;58.90
66629;DHT22;53532;53.084;6.352;2022-08-20T11:10:21;24.70;59.10
66629;DHT22;53532;53.084;6.352;2022-08-20T11:12:47;24.70;60.80
66629;DHT22;53532;53.084;6.352;2022-08-20T11:15:13;24.70;61.20
66629;DHT22;53532;53.084;6.352;2022-08-20T11:17:41;24.70;61.80
66629;DHT22;53532;53.084;6.352;2022-08-20T11:20:09;24.70;62.70
66629;DHT22;53532;53.084;6.352;2022-08-20T11:22:37;24.70;63.10
66629;DHT22;53532;53.084;6.352;2022-08-20T11:25:03;24.70;63.50
66629;DHT22;53532;53.084;6.352;2022-08-20T11:27:31;24.70;62.80
66629;DHT22;53532;53.084;6.352;2022-08-20T11:29:58;24.60;62.20
66629;DHT22;53532;53.084;6.352;2022-08-20T11:32:24;24.50;63.50
66629;DHT22;53532;53.084;6.352;2022-08-20T11:34:50;24.70;63.70
66629;DHT22;53532;53.084;6.352;2022-08-20T11:37:18;25.00;59.90
66629;DHT22;53532;53.084;6.352;2022-08-20T11:39:46;25.30;58.20
66629;DHT22;53532;53.084;6.352;2022-08-20T11:42:12;25.70;57.70
66629;DHT22;53532;53.084;6.352;2022-08-20T11:44:37;25.90;57.70
66629;DHT22;53532;53.084;6.352;2022-08-20T11:47:04;26.20;58.70
66629;DHT22;53532;53.084;6.352;2022-08-20T11:49:31;26.50;57.90
66629;DHT22;53532;53.084;6.352;2022-08-20T11:51:58;26.80;58.60
66629;DHT22;53532;53.084;6.352;2022-08-20T11:54:23;27.00;58.00
66629;DHT22;53532;53.084;6.352;2022-08-20T11:56:51;26.90;57.00
66629;DHT22;53532;53.084;6.352;2022-08-20T11:59:17;26.80;56.60
66629;DHT22;53532;53.084;6.352;2022-08-20T12:01:43;26.60;55.60
66629;DHT22;53532;53.084;6.352;2022-08-20T12:04:08;26.30;55.80
66629;DHT22;53532;53.084;6.352;2022-08-20T12:06:34;26.00;55.50
66629;DHT22;53532;53.084;6.352;2022-08-20T12:09:00;25.80;57.10
66629;DHT22;53532;53.084;6.352;2022-08-20T12:11:26;25.60;58.10
66629;DHT22;53532;53.084;6.352;2022-08-20T12:13:53;25.50;59.20
66629;DHT22;53532;53.084;6.352;2022-08-20T12:16:19;25.50;59.10
66629;DHT22;53532;53.084;6.352;2022-08-20T12:18:46;25.70;57.70
66629;DHT22;53532;53.084;6.352;2022-08-20T12:21:12;25.80;58.40
66629;DHT22;53532;53.084;6.352;2022-08-20T12:23:38;25.90;58.50
66629;DHT22;53532;53.084;6.352;2022-08-20T12:26:04;25.80;57.30
66629;DHT22;53532;53.084;6.352;2022-08-20T12:28:31;25.60;57.50
66629;DHT22;53532;53.084;6.352;2022-08-20T12:30:58;25.40;57.80
66629;DHT22;53532;53.084;6.352;2022-08-20T12:33:24;25.40;58.20
66629;DHT22;53532;53.084;6.352;2022-08-20T12:35:50;25.60;58.90
66629;DHT22;53532;53.084;6.352;2022-08-20T12:38:16;25.90;59.30
66629;DHT22;53532;53.084;6.352;2022-08-20T12:40:42;26.10;56.80
66629;DHT22;53532;53.084;6.352;2022-08-20T12:43:08;26.30;56.40
66629;DHT22;53532;53.084;6.352;2022-08-20T12:45:35;26.40;53.20
66629;DHT22;53532;53.084;6.352;2022-08-20T12:48:04;26.50;53.50
66629;DHT22;53532;53.084;6.352;2022-08-20T12:50:31;26.70;54.00
66629;DHT22;53532;53.084;6.352;2022-08-20T12:52:57;26.60;54.70
66629;DHT22;53532;53.084;6.352;2022-08-20T12:55:24;26.70;52.30
66629;DHT22;53532;53.084;6.352;2022-08-20T12:57:52;26.80;52.00
66629;DHT22;53532;53.084;6.352;2022-08-20T13:00:20;26.80;50.80
66629;DHT22;53532;53.084;6.352;2022-08-20T13:02:47;26.80;52.30
66629;DHT22;53532;53.084;6.352;2022-08-20T13:05:15;26.90;49.90
66629;DHT22;53532;53.084;6.352;2022-08-20T13:07:42;26.90;50.10
66629;DHT22;53532;53.084;6.352;2022-08-20T13:10:10;26.90;50.10
66629;DHT22;53532;53.084;6.352;2022-08-20T13:12:36;26.70;50.20
66629;DHT22;53532;53.084;6.352;2022-08-20T13:15:02;26.60;50.40
66629;DHT22;53532;53.084;6.352;2022-08-20T13:17:28;26.30;49.20
66629;DHT22;53532;53.084;6.352;2022-08-20T13:19:54;26.10;50.20
66629;DHT22;53532;53.084;6.352;2022-08-20T13:22:21;26.00;50.40
66629;DHT22;53532;53.084;6.352;2022-08-20T13:24:47;25.90;51.40
66629;DHT22;53532;53.084;6.352;2022-08-20T13:27:15;25.80;53.30
66629;DHT22;53532;53.084;6.352;2022-08-20T13:29:45;25.80;52.30
66629;DHT22;53532;53.084;6.352;2022-08-20T13:32:11;25.90;51.70
66629;DHT22;53532;53.084;6.352;2022-08-20T13:34:37;26.00;50.70
66629;DHT22;53532;53.084;6.352;2022-08-20T13:37:10;26.30;52.50
66629;DHT22;53532;53.084;6.352;2022-08-20T13:39:39;26.50;53.00
66629;DHT22;53532;53.084;6.352;2022-08-20T13:42:05;26.50;53.10
66629;DHT22;53532;53.084;6.352;2022-08-20T13:44:31;26.30;53.30
66629;DHT22;53532;53.084;6.352;2022-08-20T13:46:57;26.30;52.50
66629;DHT22;53532;53.084;6.352;2022-08-20T13:49:22;26.40;54.20
66629;DHT22;53532;53.084;6.352;2022-08-20T13:51:48;26.50;52.90
66629;DHT22;53532;53.084;6.352;2022-08-20T13:54:14;26.50;53.60
66629;DHT22;53532;53.084;6.352;2022-08-20T13:56:41;26.50;53.00
66629;DHT22;53532;53.084;6.352;2022-08-20T13:59:07;26.30;53.30
66629;DHT22;53532;53.084;6.352;2022-08-20T14:01:33;26.20;54.10
66629;DHT22;53532;53.084;6.352;2022-08-20T14:03:59;26.20;53.90
66629;DHT22;53532;53.084;6.352;2022-08-20T14:06:24;26.30;54.20
66629;DHT22;53532;53.084;6.352;2022-08-20T14:08:50;26.30;54.50
66629;DHT22;53532;53.084;6.352;2022-08-20T14:11:16;26.30;55.10
66629;DHT22;53532;53.084;6.352;2022-08-20T14:13:43;26.40;53.40
66629;DHT22;53532;53.084;6.352;2022-08-20T14:16:09;26.40;51.90
66629;DHT22;53532;53.084;6.352;2022-08-20T14:18:35;26.50;51.00
66629;DHT22;53532;53.084;6.352;2022-08-20T14:21:01;26.40;53.20
66629;DHT22;53532;53.084;6.352;2022-08-20T14:23:27;26.40;53.10
66629;DHT22;53532;53.084;6.352;2022-08-20T14:25:52;26.20;53.00
66629;DHT22;53532;53.084;6.352;2022-08-20T14:28:20;26.10;52.20
66629;DHT22;53532;53.084;6.352;2022-08-20T14:30:49;26.00;51.30
66629;DHT22;53532;53.084;6.352;2022-08-20T14:33:15;26.00;53.80
66629;DHT22;53532;53.084;6.352;2022-08-20T14:35:41;26.10;51.50
66629;DHT22;53532;53.084;6.352;2022-08-20T14:38:07;26.10;53.00
66629;DHT22;53532;53.084;6.352;2022-08-20T14:40:33;26.00;54.00
66629;DHT22;53532;53.084;6.352;2022-08-20T14:42:59;25.80;52.20
66629;DHT22;53532;53.084;6.352;2022-08-20T14:45:26;25.50;51.80
66629;DHT22;53532;53.084;6.352;2022-08-20T14:47:55;25.40;53.80
66629;DHT22;53532;53.084;6.352;2022-08-20T14:50:24;25.20;53.10
66629;DHT22;53532;53.084;6.352;2022-08-20T14:52:50;25.20;54.60
66629;DHT22;53532;53.084;6.352;2022-08-20T14:55:19;25.10;56.40
66629;DHT22;53532;53.084;6.352;2022-08-20T14:57:46;25.20;56.70
66629;DHT22;53532;53.084;6.352;2022-08-20T15:00:15;25.30;56.40
66629;DHT22;53532;53.084;6.352;2022-08-20T15:02:43;25.20;55.90
66629;DHT22;53532;53.084;6.352;2022-08-20T15:05:12;25.10;56.10
66629;DHT22;53532;53.084;6.352;2022-08-20T15:07:40;25.00;56.10
66629;DHT22;53532;53.084;6.352;2022-08-20T15:10:08;24.70;56.60
66629;DHT22;53532;53.084;6.352;2022-08-20T15:12:34;24.60;57.50
66629;DHT22;53532;53.084;6.352;2022-08-20T15:15:00;24.50;58.00
66629;DHT22;53532;53.084;6.352;2022-08-20T15:17:28;24.50;57.50
66629;DHT22;53532;53.084;6.352;2022-08-20T15:19:54;24.40;57.90
66629;DHT22;53532;53.084;6.352;2022-08-20T15:22:22;24.40;58.40
66629;DHT22;53532;53.084;6.352;2022-08-20T15:24:49;24.60;59.70
66629;DHT22;53532;53.084;6.352;2022-08-20T15:27:18;24.70;59.50
66629;DHT22;53532;53.084;6.352;2022-08-20T15:29:44;24.80;60.10